sensor_id;sensor_type;location;lat;lon;timestamp;pressure;altitude;pressure_sealevel;temperature;humidity
47670;BME280;33408;52.062;11.722;2022-10-03T00:00:12;101615.84;;;10.57;100.00
47670;BME280;33408;52.062;11.722;2022-10-03T00:05:58;101623.69;;;10.53;100.00
47670;BME280;33408;52.062;11.722;2022-10-03T00:08:41;101627.13;;;10.52;100.00
47670;BME280;33408;52.062;11.722;2022-10-03T00:11:17;101629.72;;;10.46;100.00
47670;BME280;33408;52.062;11.722;2022-10-03T00:13:54;101631.47;;;10.42;100.00
47670;BME280;33408;52.062;11.722;2022-10-03T00:16:28;101635.78;;;10.43;100.00
47670;BME280;33408;52.062;11.722;2022-10-03T00:19:08;101638.38;;;10.45;100.00
47670;BME280;33408;52.062;11.722;2022-10-03T00:21:50;101637.53;;;10.36;100.00
47670;BME280;33408;52.062;11.722;2022-10-03T00:24:25;101632.34;;;10.33;100.00
47670;BME280;33408;52.062;11.722;2022-10-03T00:27:02;101638.41;;;10.31;100.00
47670;BME280;33408;52.062;11.722;2022-10-03T00:29:41;101647.88;;;10.30;100.00
47670;BME280;33408;52.062;11.722;2022-10-03T00:32:22;101646.19;;;10.32;100.00
47670;BME280;33408;52.062;11.722;2022-10-03T00:35:01;101647.91;;;10.33;100.00
47670;BME280;33408;52.062;11.722;2022-10-03T00:37:36;101648.75;;;10.31;100.00
47670;BME280;33408;52.062;11.722;2022-10-03T00:40:43;101650.47;;;10.30;100.00
47670;BME280;33408;52.062;11.722;2022-10-03T00:43:44;101654.81;;;10.36;100.00
47670;BME280;33408;52.062;11.722;2022-10-03T00:49:43;101655.66;;;10.38;100.00
47670;BME280;33408;52.062;11.722;2022-10-03T00:55:24;101661.75;;;10.32;100.00
47670;BME280;33408;52.062;11.722;2022-10-03T00:58:25;101659.97;;;10.31;100.00
47670;BME280;33408;52.062;11.722;2022-10-03T01:01:02;101666.03;;;10.33;100.00
47670;BME280;33408;52.062;11.722;2022-10-03T01:03:51;101668.63;;;10.33;100.00
47670;BME280;33408;52.062;11.722;2022-10-03T01:06:31;101666.03;;;10.35;100.00
47670;BME280;33408;52.062;11.722;2022-10-03T01:09:19;101672.94;;;10.30;100.00
47670;BME280;33408;52.062;11.722;2022-10-03T01:11:59;101673.81;;;10.41;100.00
47670;BME280;33408;52.062;11.722;2022-10-03T01:14:40;101674.66;;;10.46;100.00
47670;BME280;33408;52.062;11.722;2022-10-03T01:17:15;101683.31;;;10.51;100.00
47670;BME280;33408;52.062;11.722;2022-10-03T01:19:59;101681.56;;;10.56;100.00
47670;BME280;33408;52.062;11.722;2022-10-03T01:22:47;101682.41;;;10.54;100.00
47670;BME280;33408;52.062;11.722;2022-10-03T01:25:35;101682.38;;;10.65;100.00
47670;BME280;33408;52.062;11.722;2022-10-03T01:28:16;101682.41;;;10.57;100.00
47670;BME280;33408;52.062;11.722;2022-10-03T01:31:06;101685.84;;;10.54;100.00
47670;BME280;33408;52.062;11.722;2022-10-03T01:33:35;101686.75;;;10.56;100.00
47670;BME280;33408;52.062;11.722;2022-10-03T01:36:09;101687.59;;;10.58;100.00
47670;BME280;33408;52.062;11.722;2022-10-03T01:38:43;101692.75;;;10.66;100.00
47670;BME280;33408;52.062;11.722;2022-10-03T01:41:22;101692.75;;;10.63;100.00
47670;BME280;33408;52.062;11.722;2022-10-03T01:43:55;101688.41;;;10.73;100.00
47670;BME280;33408;52.062;11.722;2022-10-03T01:46:34;101691.00;;;10.71;100.00
47670;BME280;33408;52.062;11.722;2022-10-03T01:49:08;101697.03;;;10.75;100.00
47670;BME280;33408;52.062;11.722;2022-10-03T01:51:44;101701.34;;;10.81;100.00
47670;BME280;33408;52.062;11.722;2022-10-03T01:54:17;101701.31;;;10.88;100.00
47670;BME280;33408;52.062;11.722;2022-10-03T01:56:53;101704.75;;;10.92;100.00
47670;BME280;33408;52.062;11.722;2022-10-03T01:59:34;101702.16;;;10.93;100.00
47670;BME280;33408;52.062;11.722;2022-10-03T02:02:09;101716.84;;;10.98;100.00
47670;BME280;33408;52.062;11.722;2022-10-03T02:04:44;101711.63;;;11.04;100.00
47670;BME280;33408;52.062;11.722;2022-10-03T02:07:21;101709.03;;;11.01;100.00
47670;BME280;33408;52.062;11.722;2022-10-03T02:10:01;101712.47;;;11.03;100.00
47670;BME280;33408;52.062;11.722;2022-10-03T02:12:31;101720.25;;;11.03;100.00
47670;BME280;33408;52.062;11.722;2022-10-03T02:15:10;101715.94;;;11.05;100.00
47670;BME280;33408;52.062;11.722;2022-10-03T02:17:45;101716.78;;;11.07;100.00
47670;BME280;33408;52.062;11.722;2022-10-03T02:20:33;101721.13;;;11.11;100.00
47670;BME280;33408;52.062;11.722;2022-10-03T02:23:01;101721.97;;;11.11;100.00
47670;BME280;33408;52.062;11.722;2022-10-03T02:25:55;101726.28;;;11.14;100.00
47670;BME280;33408;52.062;11.722;2022-10-03T02:28:58;101724.56;;;11.13;100.00
47670;BME280;33408;52.062;11.722;2022-10-03T02:32:23;101728.84;;;11.16;100.00
47670;BME280;33408;52.062;11.722;2022-10-03T02:38:14;101723.72;;;11.12;100.00
47670;BME280;33408;52.062;11.722;2022-10-03T02:40:59;101734.09;;;11.09;100.00
47670;BME280;33408;52.062;11.722;2022-10-03T02:44:00;101727.19;;;11.05;100.00
47670;BME280;33408;52.062;11.722;2022-10-03T02:53:31;101731.53;;;10.97;100.00
47670;BME280;33408;52.062;11.722;2022-10-03T03:02:16;101743.69;;;10.87;100.00
47670;BME280;33408;52.062;11.722;2022-10-03T03:05:17;101751.47;;;10.83;100.00
47670;BME280;33408;52.062;11.722;2022-10-03T03:08:19;101747.16;;;10.80;100.00
47670;BME280;33408;52.062;11.722;2022-10-03T03:11:20;101749.75;;;10.80;100.00
47670;BME280;33408;52.062;11.722;2022-10-03T03:14:23;101754.09;;;10.78;100.00
47670;BME280;33408;52.062;11.722;2022-10-03T03:17:11;101754.91;;;10.88;100.00
47670;BME280;33408;52.062;11.722;2022-10-03T03:20:02;101762.69;;;10.92;100.00
47670;BME280;33408;52.062;11.722;2022-10-03T03:22:42;101759.22;;;11.00;100.00
47670;BME280;33408;52.062;11.722;2022-10-03T03:28:14;101758.41;;;10.82;100.00
47670;BME280;33408;52.062;11.722;2022-10-03T03:30:52;101756.69;;;10.76;100.00
47670;BME280;33408;52.062;11.722;2022-10-03T03:33:29;101759.28;;;10.75;100.00
47670;BME280;33408;52.062;11.722;2022-10-03T03:36:03;101764.47;;;10.73;100.00
47670;BME280;33408;52.062;11.722;2022-10-03T03:38:40;101759.28;;;10.69;100.00
47670;BME280;33408;52.062;11.722;2022-10-03T03:41:27;101765.38;;;10.68;100.00
47670;BME280;33408;52.062;11.722;2022-10-03T03:47:18;101767.09;;;10.64;100.00
47670;BME280;33408;52.062;11.722;2022-10-03T03:50:06;101773.13;;;10.69;100.00
47670;BME280;33408;52.062;11.722;2022-10-03T03:52:47;101765.34;;;10.75;100.00
47670;BME280;33408;52.062;11.722;2022-10-03T03:55:35;101778.31;;;10.75;100.00
47670;BME280;33408;52.062;11.722;2022-10-03T03:58:17;101772.25;;;10.73;100.00
47670;BME280;33408;52.062;11.722;2022-10-03T04:01:02;101781.75;;;10.76;100.00
47670;BME280;33408;52.062;11.722;2022-10-03T04:03:41;101784.34;;;10.74;100.00
47670;BME280;33408;52.062;11.722;2022-10-03T04:06:23;101790.41;;;10.78;100.00
47670;BME280;33408;52.062;11.722;2022-10-03T04:09:16;101781.75;;;10.87;100.00
47670;BME280;33408;52.062;11.722;2022-10-03T04:11:53;101783.47;;;10.86;100.00
47670;BME280;33408;52.062;11.722;2022-10-03T04:14:43;101788.63;;;10.89;100.00
47670;BME280;33408;52.062;11.722;2022-10-03T04:17:32;101776.50;;;10.91;100.00
47670;BME280;33408;52.062;11.722;2022-10-03T04:20:33;101770.47;;;10.89;100.00
47670;BME280;33408;52.062;11.722;2022-10-03T04:23:19;101784.34;;;10.87;100.00
47670;BME280;33408;52.062;11.722;2022-10-03T04:26:00;101781.75;;;10.79;100.00
47670;BME280;33408;52.062;11.722;2022-10-03T04:29:04;101790.41;;;10.75;100.00
47670;BME280;33408;52.062;11.722;2022-10-03T04:31:49;101791.28;;;10.75;100.00
47670;BME280;33408;52.062;11.722;2022-10-03T04:34:32;101786.97;;;10.73;100.00
47670;BME280;33408;52.062;11.722;2022-10-03T04:37:31;101787.81;;;10.72;100.00
47670;BME280;33408;52.062;11.722;2022-10-03T04:40:20;101783.50;;;10.75;100.00
47670;BME280;33408;52.062;11.722;2022-10-03T04:42:58;101781.75;;;10.79;100.00
47670;BME280;33408;52.062;11.722;2022-10-03T04:45:37;101781.75;;;10.77;100.00
47670;BME280;33408;52.062;11.722;2022-10-03T04:48:12;101785.22;;;10.76;100.00
47670;BME280;33408;52.062;11.722;2022-10-03T04:50:48;101791.28;;;10.75;100.00
47670;BME280;33408;52.062;11.722;2022-10-03T04:53:28;101790.41;;;10.75;100.00
47670;BME280;33408;52.062;11.722;2022-10-03T04:56:12;101793.00;;;10.73;100.00
47670;BME280;33408;52.062;11.722;2022-10-03T04:58:49;101795.59;;;10.72;100.00
47670;BME280;33408;52.062;11.722;2022-10-03T05:01:23;101799.06;;;10.72;100.00
47670;BME280;33408;52.062;11.722;2022-10-03T05:04:03;101795.59;;;10.70;100.00
47670;BME280;33408;52.062;11.722;2022-10-03T05:06:43;101803.38;;;10.69;100.00
47670;BME280;33408;52.062;11.722;2022-10-03T05:09:22;101806.84;;;10.66;100.00
47670;BME280;33408;52.062;11.722;2022-10-03T05:11:58;101810.31;;;10.57;100.00
47670;BME280;33408;52.062;11.722;2022-10-03T05:14:43;101821.56;;;10.60;100.00
47670;BME280;33408;52.062;11.722;2022-10-03T05:17:18;101818.97;;;10.58;100.00
47670;BME280;33408;52.062;11.722;2022-10-03T05:20:16;101825.84;;;10.62;100.00
47670;BME280;33408;52.062;11.722;2022-10-03T05:22:54;101823.28;;;10.65;100.00
47670;BME280;33408;52.062;11.722;2022-10-03T05:25:30;101830.19;;;10.69;100.00
47670;BME280;33408;52.062;11.722;2022-10-03T05:28:06;101832.78;;;10.75;100.00
47670;BME280;33408;52.062;11.722;2022-10-03T05:30:42;101827.56;;;10.80;100.00
47670;BME280;33408;52.062;11.722;2022-10-03T05:33:20;101825.84;;;10.77;100.00
47670;BME280;33408;52.062;11.722;2022-10-03T05:36:02;101826.69;;;10.84;100.00
47670;BME280;33408;52.062;11.722;2022-10-03T05:38:49;101824.09;;;10.92;100.00
47670;BME280;33408;52.062;11.722;2022-10-03T05:41:25;101831.00;;;10.93;100.00
47670;BME280;33408;52.062;11.722;2022-10-03T05:44:01;101828.41;;;10.91;100.00
47670;BME280;33408;52.062;11.722;2022-10-03T05:46:39;101824.09;;;10.97;100.00
47670;BME280;33408;52.062;11.722;2022-10-03T05:49:21;101834.47;;;10.97;100.00
47670;BME280;33408;52.062;11.722;2022-10-03T05:52:05;101835.31;;;10.95;100.00
47670;BME280;33408;52.062;11.722;2022-10-03T05:54:48;101831.00;;;10.93;100.00
47670;BME280;33408;52.062;11.722;2022-10-03T05:57:37;101833.63;;;10.87;100.00
47670;BME280;33408;52.062;11.722;2022-10-03T06:00:17;101833.63;;;10.85;100.00
47670;BME280;33408;52.062;11.722;2022-10-03T06:02:57;101849.16;;;10.91;100.00
47670;BME280;33408;52.062;11.722;2022-10-03T06:05:39;101849.16;;;10.99;100.00
47670;BME280;33408;52.062;11.722;2022-10-03T06:08:25;101858.66;;;11.08;100.00
47670;BME280;33408;52.062;11.722;2022-10-03T06:11:01;101856.91;;;11.15;100.00
47670;BME280;33408;52.062;11.722;2022-10-03T06:14:01;101866.38;;;11.28;100.00
47670;BME280;33408;52.062;11.722;2022-10-03T06:16:39;101866.34;;;11.37;100.00
47670;BME280;33408;52.062;11.722;2022-10-03T06:19:17;101868.94;;;11.34;100.00
47670;BME280;33408;52.062;11.722;2022-10-03T06:22:21;101866.31;;;11.48;100.00
47670;BME280;33408;52.062;11.722;2022-10-03T06:25:36;101862.84;;;11.43;100.00
47670;BME280;33408;52.062;11.722;2022-10-03T06:32:00;101874.97;;;11.42;100.00
47670;BME280;33408;52.062;11.722;2022-10-03T06:38:03;101882.66;;;11.67;100.00
47670;BME280;33408;52.062;11.722;2022-10-03T06:41:23;101875.72;;;11.72;100.00
47670;BME280;33408;52.062;11.722;2022-10-03T06:44:14;101876.53;;;11.83;100.00
47670;BME280;33408;52.062;11.722;2022-10-03T06:46:54;101877.44;;;11.76;100.00
47670;BME280;33408;52.062;11.722;2022-10-03T06:49:57;101880.88;;;11.81;100.00
47670;BME280;33408;52.062;11.722;2022-10-03T07:01:56;101893.72;;;12.12;100.00
47670;BME280;33408;52.062;11.722;2022-10-03T07:04:39;101892.03;;;12.07;100.00
47670;BME280;33408;52.062;11.722;2022-10-03T07:07:35;101895.56;;;11.98;100.00
47670;BME280;33408;52.062;11.722;2022-10-03T07:10:24;101892.88;;;12.10;100.00
47670;BME280;33408;52.062;11.722;2022-10-03T07:13:14;101900.63;;;12.15;100.00
47670;BME280;33408;52.062;11.722;2022-10-03T07:15:56;101910.09;;;12.27;100.00
47670;BME280;33408;52.062;11.722;2022-10-03T07:19:01;101901.34;;;12.42;100.00
47670;BME280;33408;52.062;11.722;2022-10-03T07:21:47;101898.84;;;12.23;100.00
47670;BME280;33408;52.062;11.722;2022-10-03T07:24:37;101892.78;;;12.24;100.00
47670;BME280;33408;52.062;11.722;2022-10-03T07:27:17;101897.00;;;12.42;100.00
47670;BME280;33408;52.062;11.722;2022-10-03T07:29:57;101895.16;;;12.53;100.00
47670;BME280;33408;52.062;11.722;2022-10-03T07:33:06;101900.34;;;12.58;100.00
47670;BME280;33408;52.062;11.722;2022-10-03T07:35:49;101902.75;;;12.76;100.00
47670;BME280;33408;52.062;11.722;2022-10-03T07:38:50;101908.75;;;12.86;100.00
47670;BME280;33408;52.062;11.722;2022-10-03T07:41:34;101911.41;;;12.83;100.00
47670;BME280;33408;52.062;11.722;2022-10-03T07:44:35;101917.53;;;12.73;100.00
47670;BME280;33408;52.062;11.722;2022-10-03T07:47:33;101910.50;;;12.86;100.00
47670;BME280;33408;52.062;11.722;2022-10-03T07:50:29;101925.03;;;13.10;100.00
47670;BME280;33408;52.062;11.722;2022-10-03T07:53:16;101926.81;;;13.06;100.00
47670;BME280;33408;52.062;11.722;2022-10-03T07:55:59;101928.34;;;13.26;100.00
47670;BME280;33408;52.062;11.722;2022-10-03T08:01:45;101946.00;;;12.94;100.00
47670;BME280;33408;52.062;11.722;2022-10-03T08:07:25;101944.00;;;13.23;100.00
47670;BME280;33408;52.062;11.722;2022-10-03T08:10:26;101944.94;;;13.17;100.00
47670;BME280;33408;52.062;11.722;2022-10-03T08:13:16;101943.09;;;13.28;100.00
47670;BME280;33408;52.062;11.722;2022-10-03T08:15:54;101948.44;;;13.10;100.00
47670;BME280;33408;52.062;11.722;2022-10-03T08:18:46;101954.44;;;13.20;100.00
47670;BME280;33408;52.062;11.722;2022-10-03T08:21:20;101951.06;;;13.08;100.00
47670;BME280;33408;52.062;11.722;2022-10-03T08:24:28;101949.00;;;13.46;100.00
47670;BME280;33408;52.062;11.722;2022-10-03T08:30:16;101946.81;;;13.85;100.00
47670;BME280;33408;52.062;11.722;2022-10-03T08:33:02;101937.50;;;13.64;100.00
47670;BME280;33408;52.062;11.722;2022-10-03T08:36:03;101946.53;;;13.34;100.00
47670;BME280;33408;52.062;11.722;2022-10-03T08:38:49;101941.16;;;13.47;100.00
47670;BME280;33408;52.062;11.722;2022-10-03T08:44:46;101943.63;;;13.60;100.00
47670;BME280;33408;52.062;11.722;2022-10-03T08:47:43;101955.06;;;13.46;100.00
47670;BME280;33408;52.062;11.722;2022-10-03T08:50:45;101949.41;;;13.85;100.00
47670;BME280;33408;52.062;11.722;2022-10-03T08:56:16;101946.38;;;14.17;100.00
47670;BME280;33408;52.062;11.722;2022-10-03T08:59:12;101943.97;;;14.02;100.00
47670;BME280;33408;52.062;11.722;2022-10-03T09:05:12;101938.72;;;14.05;100.00
47670;BME280;33408;52.062;11.722;2022-10-03T09:08:05;101940.91;;;14.33;100.00
47670;BME280;33408;52.062;11.722;2022-10-03T09:14:30;101942.13;;;14.69;100.00
47670;BME280;33408;52.062;11.722;2022-10-03T09:17:07;101946.09;;;14.93;100.00
47670;BME280;33408;52.062;11.722;2022-10-03T09:23:01;101951.31;;;14.93;100.00
47670;BME280;33408;52.062;11.722;2022-10-03T09:25:41;101951.41;;;14.87;100.00
47670;BME280;33408;52.062;11.722;2022-10-03T09:28:34;101947.31;;;14.72;100.00
47670;BME280;33408;52.062;11.722;2022-10-03T09:31:17;101943.88;;;15.20;100.00
47670;BME280;33408;52.062;11.722;2022-10-03T09:34:07;101942.56;;;14.96;100.00
47670;BME280;33408;52.062;11.722;2022-10-03T09:37:13;101940.75;;;15.01;100.00
47670;BME280;33408;52.062;11.722;2022-10-03T09:42:57;101941.66;;;14.97;100.00
47670;BME280;33408;52.062;11.722;2022-10-03T09:48:40;101946.44;;;14.73;100.00
47670;BME280;33408;52.062;11.722;2022-10-03T09:51:35;101951.09;;;15.07;100.00
47670;BME280;33408;52.062;11.722;2022-10-03T09:57:45;101943.34;;;15.01;100.00
47670;BME280;33408;52.062;11.722;2022-10-03T10:00:23;101954.56;;;15.06;100.00
47670;BME280;33408;52.062;11.722;2022-10-03T10:06:35;101947.28;;;15.24;100.00
47670;BME280;33408;52.062;11.722;2022-10-03T10:09:37;101941.75;;;15.42;100.00
47670;BME280;33408;52.062;11.722;2022-10-03T10:12:41;101938.97;;;15.48;100.00
47670;BME280;33408;52.062;11.722;2022-10-03T10:15:56;101948.13;;;15.69;100.00
47670;BME280;33408;52.062;11.722;2022-10-03T10:18:49;101939.50;;;16.08;100.00
47670;BME280;33408;52.062;11.722;2022-10-03T10:21:49;101944.38;;;16.25;100.00
47670;BME280;33408;52.062;11.722;2022-10-03T10:27:48;101943.88;;;15.65;100.00
47670;BME280;33408;52.062;11.722;2022-10-03T10:30:47;101938.09;;;15.49;100.00
47670;BME280;33408;52.062;11.722;2022-10-03T10:37:00;101939.06;;;15.44;100.00
47670;BME280;33408;52.062;11.722;2022-10-03T10:39:57;101937.50;;;15.35;100.00
47670;BME280;33408;52.062;11.722;2022-10-03T10:45:41;101944.72;;;15.22;100.00
47670;BME280;33408;52.062;11.722;2022-10-03T10:52:01;101945.44;;;15.29;100.00
47670;BME280;33408;52.062;11.722;2022-10-03T10:55:07;101941.34;;;15.62;100.00
47670;BME280;33408;52.062;11.722;2022-10-03T10:58:03;101939.22;;;15.83;100.00
47670;BME280;33408;52.062;11.722;2022-10-03T11:00:50;101937.09;;;16.00;100.00
47670;BME280;33408;52.062;11.722;2022-10-03T11:07:10;101928.44;;;15.53;99.69
47670;BME280;33408;52.062;11.722;2022-10-03T11:09:46;101945.16;;;15.46;100.00
47670;BME280;33408;52.062;11.722;2022-10-03T11:12:47;101943.97;;;15.16;100.00
47670;BME280;33408;52.062;11.722;2022-10-03T11:22:01;101934.72;;;15.44;100.00
47670;BME280;33408;52.062;11.722;2022-10-03T11:28:01;101937.69;;;15.69;100.00
47670;BME280;33408;52.062;11.722;2022-10-03T11:30:53;101934.72;;;16.27;100.00
47670;BME280;33408;52.062;11.722;2022-10-03T11:39:42;101928.44;;;15.97;100.00
47670;BME280;33408;52.062;11.722;2022-10-03T11:42:20;101930.69;;;15.72;100.00
47670;BME280;33408;52.062;11.722;2022-10-03T11:44:55;101929.38;;;15.94;100.00
47670;BME280;33408;52.062;11.722;2022-10-03T11:47:41;101933.31;;;16.14;100.00
47670;BME280;33408;52.062;11.722;2022-10-03T11:50:29;101929.91;;;16.10;100.00
47670;BME280;33408;52.062;11.722;2022-10-03T11:56:14;101929.59;;;15.83;100.00
47670;BME280;33408;52.062;11.722;2022-10-03T11:58:54;101928.22;;;16.06;100.00
47670;BME280;33408;52.062;11.722;2022-10-03T12:01:28;101933.03;;;16.26;100.00
47670;BME280;33408;52.062;11.722;2022-10-03T12:04:08;101930.13;;;15.99;100.00
47670;BME280;33408;52.062;11.722;2022-10-03T12:06:48;101925.91;;;15.92;100.00
47670;BME280;33408;52.062;11.722;2022-10-03T12:09:42;101913.31;;;16.49;100.00
47670;BME280;33408;52.062;11.722;2022-10-03T12:12:16;101912.44;;;16.11;100.00
47670;BME280;33408;52.062;11.722;2022-10-03T12:14:54;101913.16;;;16.17;100.00
47670;BME280;33408;52.062;11.722;2022-10-03T12:17:31;101919.44;;;16.10;100.00
47670;BME280;33408;52.062;11.722;2022-10-03T12:20:02;101919.84;;;16.29;100.00
47670;BME280;33408;52.062;11.722;2022-10-03T12:22:43;101907.59;;;15.92;100.00
47670;BME280;33408;52.062;11.722;2022-10-03T12:25:19;101906.19;;;15.77;100.00
47670;BME280;33408;52.062;11.722;2022-10-03T12:27:55;101911.03;;;15.96;100.00
47670;BME280;33408;52.062;11.722;2022-10-03T12:30:26;101903.56;;;16.16;100.00
47670;BME280;33408;52.062;11.722;2022-10-03T12:33:07;101907.56;;;16.33;100.00
47670;BME280;33408;52.062;11.722;2022-10-03T12:35:42;101897.47;;;16.89;100.00
47670;BME280;33408;52.062;11.722;2022-10-03T12:38:25;101896.28;;;16.67;100.00
47670;BME280;33408;52.062;11.722;2022-10-03T12:41:07;101896.09;;;16.74;100.00
47670;BME280;33408;52.062;11.722;2022-10-03T12:43:50;101888.13;;;16.77;100.00
47670;BME280;33408;52.062;11.722;2022-10-03T12:46:29;101880.34;;;16.76;100.00
47670;BME280;33408;52.062;11.722;2022-10-03T12:49:02;101899.38;;;16.83;100.00
47670;BME280;33408;52.062;11.722;2022-10-03T12:51:39;101886.75;;;16.99;100.00
47670;BME280;33408;52.062;11.722;2022-10-03T12:54:23;101889.91;;;17.11;97.26
47670;BME280;33408;52.062;11.722;2022-10-03T12:57:08;101883.94;;;16.72;99.84
47670;BME280;33408;52.062;11.722;2022-10-03T12:59:39;101880.94;;;16.51;98.51
47670;BME280;33408;52.062;11.722;2022-10-03T13:02:24;101893.97;;;17.22;96.91
47670;BME280;33408;52.062;11.722;2022-10-03T13:07:59;101889.97;;;16.39;100.00
47670;BME280;33408;52.062;11.722;2022-10-03T13:10:36;101893.44;;;16.02;100.00
47670;BME280;33408;52.062;11.722;2022-10-03T13:13:21;101913.09;;;15.81;100.00
47670;BME280;33408;52.062;11.722;2022-10-03T13:16:04;101917.16;;;15.51;100.00
47670;BME280;33408;52.062;11.722;2022-10-03T13:18:49;101925.22;;;14.92;100.00
47670;BME280;33408;52.062;11.722;2022-10-03T13:21:20;101920.22;;;14.81;100.00
47670;BME280;33408;52.062;11.722;2022-10-03T13:23:53;101918.63;;;14.71;100.00
47670;BME280;33408;52.062;11.722;2022-10-03T13:26:25;101911.69;;;15.18;100.00
47670;BME280;33408;52.062;11.722;2022-10-03T13:29:26;101915.56;;;15.44;100.00
47670;BME280;33408;52.062;11.722;2022-10-03T13:32:09;101907.09;;;15.75;100.00
47670;BME280;33408;52.062;11.722;2022-10-03T13:34:59;101904.81;;;16.00;100.00
47670;BME280;33408;52.062;11.722;2022-10-03T13:38:03;101899.88;;;15.88;100.00
47670;BME280;33408;52.062;11.722;2022-10-03T13:40:35;101898.66;;;15.62;100.00
47670;BME280;33408;52.062;11.722;2022-10-03T13:43:09;101903.00;;;15.61;100.00
47670;BME280;33408;52.062;11.722;2022-10-03T13:45:41;101901.91;;;15.73;100.00
47670;BME280;33408;52.062;11.722;2022-10-03T13:48:12;101904.03;;;15.96;100.00
47670;BME280;33408;52.062;11.722;2022-10-03T13:50:46;101900.75;;;16.26;100.00
47670;BME280;33408;52.062;11.722;2022-10-03T13:53:30;101910.41;;;16.23;100.00
47670;BME280;33408;52.062;11.722;2022-10-03T13:56:05;101892.59;;;16.02;100.00
47670;BME280;33408;52.062;11.722;2022-10-03T13:58:41;101896.75;;;16.11;100.00
47670;BME280;33408;52.062;11.722;2022-10-03T14:01:26;101901.19;;;16.07;100.00
47670;BME280;33408;52.062;11.722;2022-10-03T14:04:27;101893.31;;;16.09;100.00
47670;BME280;33408;52.062;11.722;2022-10-03T14:07:06;101887.81;;;15.80;100.00
47670;BME280;33408;52.062;11.722;2022-10-03T14:09:48;101886.84;;;15.86;100.00
47670;BME280;33408;52.062;11.722;2022-10-03T14:12:34;101896.47;;;15.84;100.00
47670;BME280;33408;52.062;11.722;2022-10-03T14:15:15;101892.13;;;15.83;100.00
47670;BME280;33408;52.062;11.722;2022-10-03T14:17:53;101890.47;;;15.79;100.00
47670;BME280;33408;52.062;11.722;2022-10-03T14:20:27;101884.63;;;15.66;100.00
47670;BME280;33408;52.062;11.722;2022-10-03T14:23:12;101889.91;;;15.63;100.00
47670;BME280;33408;52.062;11.722;2022-10-03T14:25:44;101885.72;;;15.56;100.00
47670;BME280;33408;52.062;11.722;2022-10-03T14:28:19;101891.19;;;15.43;100.00
47670;BME280;33408;52.062;11.722;2022-10-03T14:30:58;101892.19;;;15.38;100.00
47670;BME280;33408;52.062;11.722;2022-10-03T14:33:32;101908.00;;;15.30;100.00
47670;BME280;33408;52.062;11.722;2022-10-03T14:36:10;101896.88;;;15.20;100.00
47670;BME280;33408;52.062;11.722;2022-10-03T14:38:59;101899.66;;;15.09;100.00
47670;BME280;33408;52.062;11.722;2022-10-03T14:41:39;101900.44;;;15.14;100.00
47670;BME280;33408;52.062;11.722;2022-10-03T14:44:12;101896.84;;;15.22;100.00
47670;BME280;33408;52.062;11.722;2022-10-03T14:46:46;101890.66;;;15.26;100.00
47670;BME280;33408;52.062;11.722;2022-10-03T14:49:19;101898.47;;;15.27;100.00
47670;BME280;33408;52.062;11.722;2022-10-03T14:51:51;101903.75;;;15.24;100.00
47670;BME280;33408;52.062;11.722;2022-10-03T14:54:24;101923.91;;;14.68;100.00
47670;BME280;33408;52.062;11.722;2022-10-03T14:56:53;101933.19;;;14.28;100.00
47670;BME280;33408;52.062;11.722;2022-10-03T14:59:25;101941.91;;;14.26;100.00
47670;BME280;33408;52.062;11.722;2022-10-03T15:01:56;101928.81;;;14.30;100.00
47670;BME280;33408;52.062;11.722;2022-10-03T15:04:27;101924.63;;;14.20;100.00
47670;BME280;33408;52.062;11.722;2022-10-03T15:06:56;101927.31;;;14.14;100.00
47670;BME280;33408;52.062;11.722;2022-10-03T15:09:30;101917.97;;;13.96;100.00
47670;BME280;33408;52.062;11.722;2022-10-03T15:12:02;101920.50;;;14.02;100.00
47670;BME280;33408;52.062;11.722;2022-10-03T15:14:33;101918.78;;;14.01;100.00
47670;BME280;33408;52.062;11.722;2022-10-03T15:17:04;101913.38;;;14.15;100.00
47670;BME280;33408;52.062;11.722;2022-10-03T15:19:35;101911.66;;;14.14;100.00
47670;BME280;33408;52.062;11.722;2022-10-03T15:22:11;101911.56;;;14.20;100.00
47670;BME280;33408;52.062;11.722;2022-10-03T15:24:44;101907.22;;;14.20;100.00
47670;BME280;33408;52.062;11.722;2022-10-03T15:27:17;101907.94;;;14.30;100.00
47670;BME280;33408;52.062;11.722;2022-10-03T15:29:50;101905.25;;;14.36;100.00
47670;BME280;33408;52.062;11.722;2022-10-03T15:32:20;101903.53;;;14.34;100.00
47670;BME280;33408;52.062;11.722;2022-10-03T15:34:52;101904.50;;;14.28;100.00
47670;BME280;33408;52.062;11.722;2022-10-03T15:37:23;101901.06;;;14.23;100.00
47670;BME280;33408;52.062;11.722;2022-10-03T15:39:53;101910.59;;;14.26;100.00
47670;BME280;33408;52.062;11.722;2022-10-03T15:42:29;101909.81;;;14.20;100.00
47670;BME280;33408;52.062;11.722;2022-10-03T15:45:00;101914.09;;;14.25;100.00
47670;BME280;33408;52.062;11.722;2022-10-03T15:47:31;101910.63;;;14.24;100.00
47670;BME280;33408;52.062;11.722;2022-10-03T15:50:02;101907.97;;;14.29;100.00
47670;BME280;33408;52.062;11.722;2022-10-03T15:52:34;101909.69;;;14.30;100.00
47670;BME280;33408;52.062;11.722;2022-10-03T15:55:05;101905.38;;;14.27;100.00